< < Back
Terminal Aerodrome Forecast


Current Version              Previous Versions:   1  2  3  4  5  6  7  8  9  

Terminal Aerodrome Forecast

879
FTUS42 KFFC 231724
TAFCSG
TAF
KCSG 231724Z 2318/2418 22007KT P6SM VCSH SCT050
      TEMPO 2320/2324 VRB15G25KT 4SM TSRA BKN040CB
     FM240100 22003KT P6SM SCT150 BKN250
     FM241500 25005KT P6SM SCT035
     FM241700 22006KT P6SM VCSH SCT045=

Latest METAR

233
SAUS70 KWBC 240800
MTRCSG
METAR KCSG 240751Z AUTO 00000KT 10SM CLR 27/22 A3000 RMK AO2 SLP153
T02670222


USA.gov is the U.S. government's official web portal to all federal, state and local government web resources and services.